createdAt,value
2019-02-05T00:00:52.399Z,42.20
2019-02-05T00:03:24.065Z,46.20
2019-02-05T00:05:55.718Z,48.10
2019-02-05T00:08:27.280Z,46.23
2019-02-05T00:10:59.149Z,40.27
2019-02-05T00:13:30.828Z,46.70
2019-02-05T00:16:02.499Z,47.17
2019-02-05T00:18:34.079Z,44.23
2019-02-05T00:21:05.653Z,43.37
2019-02-05T00:23:37.522Z,41.50
2019-02-05T00:26:09.105Z,38.50
2019-02-05T00:28:40.733Z,44.43
2019-02-05T00:31:12.368Z,45.90
2019-02-05T00:33:43.940Z,38.53
2019-02-05T00:36:15.805Z,58.33
2019-02-05T00:38:47.350Z,48.73
2019-02-05T00:41:18.927Z,42.33
2019-02-05T00:43:50.508Z,43.60
2019-02-05T00:46:22.096Z,42.90
2019-02-05T00:48:53.948Z,41.57
2019-02-05T00:51:25.526Z,46.20
2019-02-05T00:53:57.110Z,36.23
2019-02-05T00:56:28.682Z,38.63
2019-02-05T00:59:00.710Z,32.83
2019-02-05T01:01:33.084Z,32.77
2019-02-05T01:04:04.666Z,40.10
2019-02-05T01:06:36.222Z,37.03
2019-02-05T01:09:08.480Z,33.37
2019-02-05T01:11:40.112Z,39.90
2019-02-05T01:14:11.820Z,22.60
2019-02-05T01:16:43.432Z,38.57
2019-02-05T01:19:15.089Z,30.47
2019-02-05T01:21:46.647Z,35.73
2019-02-05T01:24:18.261Z,32.20
2019-02-05T01:26:49.826Z,31.37
2019-02-05T01:29:21.449Z,27.73
2019-02-05T01:31:53.036Z,36.27
2019-02-05T01:34:24.734Z,27.80
2019-02-05T01:36:56.378Z,33.43
2019-02-05T01:39:27.952Z,29.93
2019-02-05T01:41:59.607Z,35.33
2019-02-05T01:44:31.168Z,34.77
2019-02-05T01:47:02.738Z,31.77
2019-02-05T01:49:34.321Z,37.50
2019-02-05T01:52:05.904Z,38.37
2019-02-05T01:54:37.459Z,34.77
2019-02-05T01:57:09.040Z,29.57
2019-02-05T01:59:40.633Z,30.23
2019-02-05T02:02:12.205Z,29.30
2019-02-05T02:04:44.951Z,33.57
2019-02-05T02:07:16.502Z,30.63
2019-02-05T02:09:48.125Z,29.73
2019-02-05T02:12:19.694Z,29.73
2019-02-05T02:14:51.323Z,34.47
2019-02-05T02:17:22.890Z,32.87
2019-02-05T02:19:54.541Z,31.20
2019-02-05T02:22:26.119Z,38.80
2019-02-05T02:24:57.704Z,28.73
2019-02-05T02:27:29.279Z,42.57
2019-02-05T02:30:00.875Z,40.03
2019-02-05T02:32:32.516Z,28.47
2019-02-05T02:35:04.740Z,30.97
2019-02-05T02:37:36.305Z,37.93
2019-02-05T02:40:10.467Z,32.00
2019-02-05T02:42:42.110Z,31.50
2019-02-05T02:45:15.698Z,31.60
2019-02-05T02:47:47.272Z,34.20
2019-02-05T02:50:22.814Z,33.70
2019-02-05T02:52:54.547Z,29.77
2019-02-05T02:55:26.122Z,30.90
2019-02-05T02:57:57.701Z,34.60
2019-02-05T03:00:29.357Z,31.83
2019-02-05T03:03:00.937Z,32.20
2019-02-05T03:05:33.012Z,37.23
2019-02-05T03:08:04.625Z,32.60
2019-02-05T03:10:36.184Z,29.47
2019-02-05T03:13:07.835Z,35.40
2019-02-05T03:15:39.517Z,28.67
2019-02-05T03:18:11.236Z,32.43
2019-02-05T03:20:42.797Z,30.63
2019-02-05T03:23:14.452Z,37.00
2019-02-05T03:25:46.032Z,35.10
2019-02-05T03:28:18.543Z,37.00
2019-02-05T03:30:50.133Z,36.13
2019-02-05T03:33:23.392Z,29.57
2019-02-05T03:35:54.961Z,37.07
2019-02-05T03:38:26.520Z,39.70
2019-02-05T03:41:25.659Z,33.13
2019-02-05T03:43:57.329Z,29.23
2019-02-05T03:46:29.442Z,34.03
2019-02-05T03:49:01.277Z,22.73
2019-02-05T03:51:40.853Z,38.00
2019-02-05T03:54:20.589Z,37.13
2019-02-05T03:57:03.916Z,31.47
2019-02-05T03:59:58.342Z,36.73
2019-02-05T04:02:49.979Z,30.90
2019-02-05T04:05:58.319Z,35.87
2019-02-05T04:08:56.200Z,31.13
2019-02-05T04:11:56.300Z,32.93
2019-02-05T04:14:54.131Z,40.70
2019-02-05T04:17:33.602Z,32.10
2019-02-05T04:20:54.980Z,35.63
2019-02-05T04:23:46.672Z,31.17
2019-02-05T04:26:34.881Z,38.30
2019-02-05T04:29:38.416Z,33.63
2019-02-05T04:32:15.251Z,34.87
2019-02-05T04:35:16.352Z,27.97
2019-02-05T04:38:11.316Z,27.33
2019-02-05T04:41:19.947Z,27.90
2019-02-05T04:44:05.302Z,27.70
2019-02-05T04:47:05.412Z,27.60
2019-02-05T04:49:47.721Z,24.50
2019-02-05T04:52:39.352Z,34.60
2019-02-05T04:55:41.316Z,41.50
2019-02-05T04:58:23.563Z,33.30
2019-02-05T05:01:12.232Z,30.63
2019-02-05T05:04:08.569Z,32.03
2019-02-05T05:06:48.485Z,37.10
2019-02-05T05:09:42.499Z,43.00
2019-02-05T05:12:14.266Z,41.73
2019-02-05T05:14:46.359Z,34.40
2019-02-05T05:17:17.998Z,41.53
2019-02-05T05:19:49.650Z,40.73
2019-02-05T05:22:21.324Z,38.33
2019-02-05T05:24:53.119Z,48.00
2019-02-05T05:27:25.525Z,40.30
2019-02-05T05:29:57.606Z,41.23
2019-02-05T05:32:29.235Z,39.10
2019-02-05T05:35:00.973Z,30.27
2019-02-05T05:37:32.569Z,38.17
2019-02-05T05:40:05.565Z,34.43
2019-02-05T05:42:37.182Z,41.67
2019-02-05T05:45:12.781Z,33.43
2019-02-05T05:47:45.023Z,40.50
2019-02-05T05:50:17.041Z,35.17
2019-02-05T05:52:48.643Z,40.33
2019-02-05T05:55:20.219Z,38.17
2019-02-05T05:57:51.825Z,27.37
2019-02-05T06:00:23.456Z,42.33
2019-02-05T06:02:55.149Z,46.43
2019-02-05T06:05:26.865Z,41.73
2019-02-05T06:07:58.602Z,38.37
2019-02-05T06:10:30.360Z,59.00
2019-02-05T06:13:02.009Z,53.77
2019-02-05T06:15:35.864Z,67.43
2019-02-05T06:18:06.966Z,79.10
2019-02-05T06:20:40.011Z,79.00
2019-02-05T06:23:11.733Z,75.93
2019-02-05T06:25:43.360Z,63.40
2019-02-05T06:28:15.026Z,63.93
2019-02-05T06:30:46.705Z,54.53
2019-02-05T06:33:18.757Z,51.73
2019-02-05T06:35:50.337Z,48.10
2019-02-05T06:38:22.035Z,60.50
2019-02-05T06:40:53.694Z,49.97
2019-02-05T06:43:25.401Z,53.20
2019-02-05T06:45:57.328Z,51.63
2019-02-05T06:48:29.008Z,43.97
2019-02-05T06:51:00.680Z,65.03
2019-02-05T06:53:32.277Z,62.90
2019-02-05T06:56:03.967Z,55.77
2019-02-05T06:58:46.040Z,52.97
2019-02-05T07:01:08.972Z,43.27
2019-02-05T07:03:40.569Z,59.27
2019-02-05T07:06:12.161Z,51.90
2019-02-05T07:08:43.764Z,54.60
2019-02-05T07:11:15.411Z,51.87
2019-02-05T07:13:47.208Z,51.40
2019-02-05T07:16:18.824Z,48.83
2019-02-05T07:18:50.606Z,42.77
2019-02-05T07:21:22.257Z,46.17
2019-02-05T07:23:54.002Z,39.87
2019-02-05T07:26:25.786Z,34.83
2019-02-05T07:29:01.516Z,39.60
2019-02-05T07:31:31.269Z,40.13
2019-02-05T07:34:02.887Z,44.77
2019-02-05T07:36:34.536Z,36.23
2019-02-05T07:39:08.739Z,29.90
2019-02-05T07:41:40.325Z,48.47
2019-02-05T07:44:11.936Z,44.30
2019-02-05T07:46:43.680Z,45.20
2019-02-05T07:49:15.440Z,42.13
2019-02-05T07:51:47.134Z,44.20
2019-02-05T07:54:19.015Z,43.17
2019-02-05T07:56:50.663Z,40.30
2019-02-05T07:59:22.447Z,39.10
2019-02-05T08:01:54.130Z,42.00
2019-02-05T08:04:25.735Z,44.27
2019-02-05T08:06:57.880Z,48.60
2019-02-05T08:09:30.355Z,45.67
2019-02-05T08:12:02.242Z,44.40
2019-02-05T08:14:33.963Z,43.93
2019-02-05T08:17:05.683Z,35.67
2019-02-05T08:19:37.449Z,55.73
2019-02-05T08:22:09.695Z,48.73
2019-02-05T08:24:41.466Z,48.73
2019-02-05T08:27:13.066Z,45.03
2019-02-05T08:29:44.725Z,46.57
2019-02-05T08:32:16.401Z,40.00
2019-02-05T08:34:47.999Z,51.67
2019-02-05T08:37:20.877Z,41.07
2019-02-05T08:39:52.671Z,45.80
2019-02-05T08:42:24.512Z,43.67
2019-02-05T08:44:56.329Z,43.90
2019-02-05T08:47:28.001Z,50.33
2019-02-05T08:49:59.584Z,51.23
2019-02-05T08:52:31.859Z,47.13
2019-02-05T08:55:03.546Z,53.40
2019-02-05T08:57:35.675Z,44.40
2019-02-05T09:00:26.765Z,50.43
2019-02-05T09:02:58.512Z,47.57
2019-02-05T09:05:30.173Z,38.60
2019-02-05T09:08:02.265Z,42.60
2019-02-05T09:10:40.042Z,41.97
2019-02-05T09:13:12.118Z,49.03
2019-02-05T09:15:43.894Z,43.23
2019-02-05T09:18:15.501Z,37.63
2019-02-05T09:20:47.221Z,41.93
2019-02-05T09:23:19.003Z,37.97
2019-02-05T09:25:50.582Z,35.33
2019-02-05T09:28:22.295Z,44.63
2019-02-05T09:30:53.868Z,38.33
2019-02-05T09:33:25.462Z,32.07
2019-02-05T09:35:57.202Z,33.93
2019-02-05T09:38:28.972Z,35.97
2019-02-05T09:41:00.863Z,30.23
2019-02-05T09:43:32.524Z,33.33
2019-02-05T09:46:04.221Z,29.27
2019-02-05T09:48:35.884Z,33.07
2019-02-05T09:51:07.556Z,36.73
2019-02-05T09:53:39.377Z,41.77
2019-02-05T09:56:11.035Z,49.40
2019-02-05T09:58:42.694Z,43.13
2019-02-05T10:01:14.288Z,42.90
2019-02-05T10:03:47.022Z,37.13
2019-02-05T10:06:18.665Z,29.90
2019-02-05T10:08:50.805Z,33.30
2019-02-05T10:11:22.409Z,33.27
2019-02-05T10:13:54.008Z,38.20
2019-02-05T10:16:25.621Z,31.77
2019-02-05T10:18:57.261Z,33.93
2019-02-05T10:21:29.026Z,29.87
2019-02-05T10:24:01.011Z,29.00
2019-02-05T10:26:32.887Z,35.20
2019-02-05T10:29:04.594Z,31.13
2019-02-05T10:31:36.176Z,26.17
2019-02-05T10:34:07.836Z,35.37
2019-02-05T10:36:39.452Z,31.83
2019-02-05T10:39:13.412Z,28.73
2019-02-05T10:41:45.072Z,32.50
2019-02-05T10:44:16.677Z,22.53
2019-02-05T10:46:48.376Z,24.83
2019-02-05T10:49:20.254Z,33.77
2019-02-05T10:51:51.926Z,39.10
2019-02-05T10:54:23.531Z,23.53
2019-02-05T10:56:55.114Z,27.23
2019-02-05T10:59:26.805Z,21.43
2019-02-05T11:01:58.945Z,23.97
2019-02-05T11:04:30.523Z,22.70
2019-02-05T11:07:02.132Z,28.27
2019-02-05T11:09:33.712Z,24.53
2019-02-05T11:12:05.669Z,23.23
2019-02-05T11:14:37.324Z,22.27
2019-02-05T11:17:08.972Z,30.23
2019-02-05T11:19:40.631Z,20.07
2019-02-05T11:22:12.320Z,23.00
2019-02-05T11:24:43.912Z,23.13
2019-02-05T11:27:15.511Z,20.60
2019-02-05T11:29:47.729Z,24.07
2019-02-05T11:32:20.223Z,33.60
2019-02-05T11:34:51.880Z,22.40
2019-02-05T11:37:23.471Z,20.13
2019-02-05T11:39:55.062Z,22.30
2019-02-05T11:42:27.166Z,26.57
2019-02-05T11:44:58.862Z,23.17
2019-02-05T11:47:30.493Z,16.90
2019-02-05T11:50:02.129Z,23.50
2019-02-05T11:52:33.866Z,20.87
2019-02-05T11:55:09.689Z,19.50
2019-02-05T11:57:41.421Z,21.37
2019-02-05T12:00:32.141Z,16.80
2019-02-05T12:02:56.804Z,19.50
2019-02-05T12:05:28.639Z,16.70
2019-02-05T12:08:00.682Z,23.60
2019-02-05T12:10:32.340Z,24.07
2019-02-05T12:13:03.928Z,22.97
2019-02-05T12:15:35.514Z,23.27
2019-02-05T12:18:08.054Z,18.17
2019-02-05T12:20:39.754Z,19.50
2019-02-05T12:23:11.392Z,23.03
2019-02-05T12:25:43.706Z,30.13
2019-02-05T12:28:15.359Z,25.10
2019-02-05T12:30:47.328Z,24.17
2019-02-05T12:33:18.978Z,21.83
2019-02-05T12:35:50.859Z,26.50
2019-02-05T12:38:22.558Z,22.23
2019-02-05T12:40:54.220Z,18.43
2019-02-05T12:43:25.901Z,24.73
2019-02-05T12:45:57.495Z,21.70
2019-02-05T12:48:29.479Z,17.77
2019-02-05T12:51:01.089Z,24.70
2019-02-05T12:53:32.691Z,21.53
2019-02-05T12:56:04.295Z,17.03
2019-02-05T12:58:35.938Z,28.30
2019-02-05T13:01:07.515Z,27.40
2019-02-05T13:03:39.312Z,19.97
2019-02-05T13:06:10.973Z,28.40
2019-02-05T13:08:42.658Z,22.50
2019-02-05T13:11:14.250Z,23.07
2019-02-05T13:13:45.917Z,26.43
2019-02-05T13:16:17.619Z,24.70
2019-02-05T13:18:51.930Z,28.77
2019-02-05T13:21:22.497Z,24.03
2019-02-05T13:23:54.247Z,22.73
2019-02-05T13:26:26.250Z,30.67
2019-02-05T13:28:57.993Z,23.33
2019-02-05T13:31:29.674Z,27.03
2019-02-05T13:34:01.345Z,24.70
2019-02-05T13:36:33.005Z,24.00
2019-02-05T13:39:08.860Z,23.90
2019-02-05T13:41:40.440Z,24.10
2019-02-05T13:44:12.108Z,22.40
2019-02-05T13:46:43.788Z,22.20
2019-02-05T13:49:15.498Z,22.87
2019-02-05T13:51:47.827Z,24.60
2019-02-05T13:54:19.481Z,25.13
2019-02-05T13:56:51.100Z,20.50
2019-02-05T13:59:22.729Z,20.47
2019-02-05T14:01:54.400Z,32.83
2019-02-05T14:04:26.077Z,22.77
2019-02-05T14:06:57.826Z,25.27
2019-02-05T14:09:29.432Z,27.10
2019-02-05T14:12:01.026Z,30.47
2019-02-05T14:14:32.636Z,28.57
2019-02-05T14:17:04.332Z,25.00
2019-02-05T14:19:36.058Z,32.27
2019-02-05T14:22:07.789Z,26.37
2019-02-05T14:24:39.415Z,31.00
2019-02-05T14:27:10.999Z,31.57
2019-02-05T14:29:42.833Z,29.97
2019-02-05T14:32:14.555Z,32.97
2019-02-05T14:34:46.247Z,32.97
2019-02-05T14:37:17.876Z,27.93
2019-02-05T14:39:50.015Z,30.30
2019-02-05T14:42:22.564Z,26.20
2019-02-05T14:44:54.158Z,26.50
2019-02-05T14:47:25.753Z,27.77
2019-02-05T14:49:57.382Z,28.87
2019-02-05T14:52:29.437Z,24.00
2019-02-05T14:55:01.042Z,26.77
2019-02-05T14:57:33.370Z,26.07
2019-02-05T15:00:08.611Z,28.53
2019-02-05T15:02:40.241Z,26.73
2019-02-05T15:05:12.414Z,24.67
2019-02-05T15:07:44.853Z,22.80
2019-02-05T15:10:19.610Z,26.03
2019-02-05T15:12:52.174Z,24.50
2019-02-05T15:15:27.150Z,25.77
2019-02-05T15:17:59.072Z,23.27
2019-02-05T15:20:38.907Z,25.50
2019-02-05T15:23:10.726Z,30.57
2019-02-05T15:25:42.473Z,31.47
2019-02-05T15:28:15.636Z,29.23
2019-02-05T15:30:47.405Z,27.50
2019-02-05T15:33:26.233Z,22.93
2019-02-05T15:36:02.414Z,26.30
2019-02-05T15:38:34.380Z,27.67
2019-02-05T15:41:06.062Z,32.20
2019-02-05T15:43:37.935Z,27.37
2019-02-05T15:46:09.560Z,27.80
2019-02-05T15:48:41.361Z,24.87
2019-02-05T15:51:13.241Z,35.60
2019-02-05T15:53:44.848Z,29.47
2019-02-05T15:56:16.554Z,27.73
2019-02-05T15:58:48.179Z,28.77
2019-02-05T16:01:20.346Z,33.23
2019-02-05T16:03:52.095Z,23.43
2019-02-05T16:06:24.360Z,23.33
2019-02-05T16:08:55.962Z,25.27
2019-02-05T16:11:27.562Z,26.47
2019-02-05T16:13:59.296Z,28.17
2019-02-05T16:16:31.369Z,25.30
2019-02-05T16:19:02.997Z,32.83
2019-02-05T16:21:34.688Z,27.20
2019-02-05T16:24:06.341Z,21.03
2019-02-05T16:26:37.911Z,28.03
2019-02-05T16:29:10.784Z,20.60
2019-02-05T16:31:42.459Z,25.63
2019-02-05T16:34:14.265Z,30.00
2019-02-05T16:36:48.615Z,30.23
2019-02-05T16:39:19.420Z,25.53
2019-02-05T16:41:51.060Z,23.73
2019-02-05T16:44:22.727Z,24.97
2019-02-05T16:46:54.823Z,29.47
2019-02-05T16:49:26.512Z,25.00
2019-02-05T16:51:58.157Z,27.77
2019-02-05T16:54:29.861Z,29.23
2019-02-05T16:57:01.556Z,28.83
2019-02-05T16:59:33.275Z,27.10
2019-02-05T17:02:05.340Z,32.17
2019-02-05T17:04:38.171Z,22.03
2019-02-05T17:07:09.883Z,27.20
2019-02-05T17:09:41.496Z,25.77
2019-02-05T17:12:13.311Z,25.83
2019-02-05T17:14:45.012Z,21.80
2019-02-05T17:17:16.758Z,29.80
2019-02-05T17:19:48.368Z,24.97
2019-02-05T17:22:19.958Z,24.80
2019-02-05T17:24:52.970Z,26.27
2019-02-05T17:27:25.628Z,29.60
2019-02-05T17:29:57.661Z,27.53
2019-02-05T17:32:39.673Z,27.20
2019-02-05T17:35:03.051Z,25.13
2019-02-05T17:37:35.225Z,25.50
2019-02-05T17:40:11.874Z,26.23
2019-02-05T17:42:45.328Z,25.03
2019-02-05T17:45:32.986Z,25.73
2019-02-05T17:48:10.200Z,24.93
2019-02-05T17:50:42.329Z,23.87
2019-02-05T17:53:14.058Z,28.80
2019-02-05T17:55:45.774Z,25.83
2019-02-05T17:58:17.433Z,26.43
2019-02-05T18:00:50.993Z,29.97
2019-02-05T18:03:23.033Z,30.87
2019-02-05T18:05:55.474Z,29.70
2019-02-05T18:08:27.048Z,28.00
2019-02-05T18:10:58.692Z,25.90
2019-02-05T18:13:30.283Z,30.27
2019-02-05T18:16:02.820Z,29.63
2019-02-05T18:18:34.412Z,31.33
2019-02-05T18:21:06.481Z,38.37
2019-02-05T18:23:38.231Z,36.90
2019-02-05T18:26:10.041Z,32.60
2019-02-05T18:28:41.943Z,35.07
2019-02-05T18:31:13.533Z,35.83
2019-02-05T18:33:45.198Z,42.60
2019-02-05T18:36:16.912Z,40.50
2019-02-05T18:38:48.570Z,36.37
2019-02-05T18:41:20.498Z,37.97
2019-02-05T18:43:52.163Z,38.97
2019-02-05T18:46:23.761Z,34.50
2019-02-05T18:49:04.703Z,31.93
2019-02-05T18:51:28.855Z,32.23
2019-02-05T18:54:00.520Z,29.57
2019-02-05T18:56:32.126Z,34.50
2019-02-05T18:59:03.705Z,29.87
2019-02-05T19:01:35.435Z,28.97
2019-02-05T19:04:07.105Z,32.50
2019-02-05T19:06:40.508Z,24.93
2019-02-05T19:09:13.650Z,21.73
2019-02-05T19:11:45.258Z,31.47
2019-02-05T19:14:16.982Z,24.93
2019-02-05T19:16:49.770Z,29.27
2019-02-05T19:19:21.477Z,26.33
2019-02-05T19:21:53.584Z,26.17
2019-02-05T19:24:32.953Z,24.90
2019-02-05T19:27:04.554Z,31.67
2019-02-05T19:29:36.866Z,29.27
2019-02-05T19:32:08.679Z,23.60
2019-02-05T19:34:40.340Z,31.30
2019-02-05T19:37:12.029Z,31.40
2019-02-05T19:39:43.644Z,34.70
2019-02-05T19:42:15.653Z,31.20
2019-02-05T19:44:48.911Z,38.03
2019-02-05T19:47:22.239Z,33.47
2019-02-05T19:49:54.096Z,37.57
2019-02-05T19:52:27.676Z,34.97
2019-02-05T19:54:59.028Z,34.67
2019-02-05T19:57:30.602Z,39.80
2019-02-05T20:00:02.574Z,35.07
2019-02-05T20:02:35.737Z,32.47
2019-02-05T20:05:10.696Z,34.17
2019-02-05T20:07:42.752Z,35.90
2019-02-05T20:10:17.297Z,30.83
2019-02-05T20:12:48.902Z,34.93
2019-02-05T20:15:20.622Z,26.83
2019-02-05T20:17:52.212Z,30.50
2019-02-05T20:20:23.978Z,26.63
2019-02-05T20:22:55.963Z,31.73
2019-02-05T20:25:27.590Z,29.90
2019-02-05T20:27:59.172Z,35.37
2019-02-05T20:30:30.765Z,32.87
2019-02-05T20:33:02.361Z,31.47
2019-02-05T20:35:34.325Z,29.87
2019-02-05T20:38:06.489Z,30.63
2019-02-05T20:40:38.427Z,31.73
2019-02-05T20:43:10.484Z,35.97
2019-02-05T20:45:42.325Z,33.00
2019-02-05T20:48:13.930Z,30.73
2019-02-05T20:50:45.632Z,34.07
2019-02-05T20:53:17.250Z,33.93
2019-02-05T20:55:48.876Z,38.53
2019-02-05T20:58:20.593Z,33.00
2019-02-05T21:00:52.187Z,30.90
2019-02-05T21:03:24.056Z,33.43
2019-02-05T21:05:56.668Z,31.03
2019-02-05T21:08:28.435Z,32.83
2019-02-05T21:11:00.140Z,30.17
2019-02-05T21:13:31.831Z,27.67
2019-02-05T21:16:03.794Z,34.80
2019-02-05T21:18:35.371Z,30.93
2019-02-05T21:21:06.971Z,30.37
2019-02-05T21:23:38.634Z,29.73
2019-02-05T21:26:10.220Z,33.07
2019-02-05T21:28:41.815Z,32.17
2019-02-05T21:31:13.497Z,29.13
2019-02-05T21:33:45.098Z,28.27
2019-02-05T21:36:16.765Z,30.03
2019-02-05T21:38:48.521Z,37.93
2019-02-05T21:41:20.185Z,26.97
2019-02-05T21:43:51.989Z,37.63
2019-02-05T21:46:23.772Z,41.60
2019-02-05T21:48:55.404Z,36.90
2019-02-05T21:51:26.975Z,34.57
2019-02-05T21:53:59.204Z,34.97
2019-02-05T21:56:31.074Z,37.73
2019-02-05T21:59:02.738Z,29.03
2019-02-05T22:01:34.427Z,44.23
2019-02-05T22:04:06.173Z,29.87
2019-02-05T22:06:37.872Z,34.23
2019-02-05T22:09:09.509Z,42.77
2019-02-05T22:11:41.300Z,32.50
2019-02-05T22:14:13.827Z,29.90
2019-02-05T22:16:45.438Z,32.73
2019-02-05T22:19:17.316Z,32.20
2019-02-05T22:21:48.983Z,32.33
2019-02-05T22:24:20.551Z,29.90
2019-02-05T22:26:52.282Z,30.93
2019-02-05T22:29:23.888Z,26.13
2019-02-05T22:31:55.721Z,30.23
2019-02-05T22:34:38.571Z,29.33
2019-02-05T22:37:03.628Z,31.60
2019-02-05T22:39:34.513Z,28.47
2019-02-05T22:42:06.453Z,31.83
2019-02-05T22:44:38.050Z,28.70
2019-02-05T22:47:09.763Z,26.20
2019-02-05T22:49:41.357Z,24.13
2019-02-05T22:52:12.979Z,29.93
2019-02-05T22:54:45.636Z,32.57
2019-02-05T22:57:17.440Z,30.63
2019-02-05T22:59:49.038Z,29.40
2019-02-05T23:02:20.628Z,31.07
2019-02-05T23:04:57.109Z,34.57
2019-02-05T23:07:28.768Z,28.03
2019-02-05T23:10:14.470Z,30.83
2019-02-05T23:12:46.772Z,25.77
2019-02-05T23:15:20.143Z,27.53
2019-02-05T23:17:51.721Z,27.80
2019-02-05T23:20:23.505Z,24.83
2019-02-05T23:22:57.187Z,23.87
2019-02-05T23:25:29.069Z,29.50
2019-02-05T23:28:01.157Z,27.67
2019-02-05T23:30:32.780Z,25.27
2019-02-05T23:33:04.593Z,23.70
2019-02-05T23:35:36.197Z,29.60
2019-02-05T23:38:07.799Z,28.70
2019-02-05T23:40:39.486Z,26.20
2019-02-05T23:43:11.321Z,26.97
2019-02-05T23:45:43.333Z,29.30
2019-02-05T23:48:14.917Z,31.03
2019-02-05T23:50:46.651Z,30.10
2019-02-05T23:53:18.336Z,30.40
2019-02-05T23:55:49.998Z,29.63
2019-02-05T23:58:22.126Z,27.63
